Time;durP1;ratioP1;P1;durP2;ratioP2;P2;SDS_P1;SDS_P2;PMS_P1;PMS_P2;Temp;Humidity;BMP_temperature;BMP_pressure;BME280_temperature;BME280_humidity;BME280_pressure;Samples;Min_cycle;Max_cycle;Signal;HPM_P1;HPM_P2
2022/09/09 00:01:37;;;;;;;9.75;7.45;;;15.60;99.90;;;;;;4993468;28;20619;-55
2022/09/09 00:04:14;;;;;;;15.07;8.32;;;15.60;99.90;;;;;;5019976;28;20049;-54
2022/09/09 00:07:14;;;;;;;12.27;8.10;;;15.50;99.90;;;;;;5000712;28;20038;-54
2022/09/09 00:09:49;;;;;;;9.70;7.63;;;15.50;99.90;;;;;;4998975;28;20100;-56
2022/09/09 00:12:16;;;;;;;10.20;7.72;;;15.50;99.90;;;;;;5001565;28;20519;-55
2022/09/09 00:14:56;;;;;;;10.48;8.13;;;15.50;99.90;;;;;;5019797;28;20056;-56
2022/09/09 00:17:56;;;;;;;13.63;7.43;;;15.50;99.90;;;;;;5007242;28;20092;-54
2022/09/09 00:20:43;;;;;;;13.40;8.30;;;15.40;99.90;;;;;;4997549;28;20030;-54
2022/09/09 00:23:27;;;;;;;12.50;7.35;;;15.40;99.90;;;;;;5000074;28;20133;-56
2022/09/09 00:26:05;;;;;;;7.38;5.93;;;15.40;99.90;;;;;;5016081;28;20437;-54
2022/09/09 00:28:35;;;;;;;11.32;7.35;;;15.40;99.90;;;;;;4999270;28;20045;-52
2022/09/09 00:31:12;;;;;;;12.43;7.43;;;15.40;99.90;;;;;;4968753;28;20641;-57
2022/09/09 00:33:40;;;;;;;13.35;8.48;;;15.40;99.90;;;;;;5002207;28;20453;-52
2022/09/09 00:36:15;;;;;;;11.02;8.38;;;15.40;99.90;;;;;;4993141;28;20378;-56
2022/09/09 00:38:49;;;;;;;9.70;6.72;;;15.40;99.90;;;;;;5004119;28;20053;-57
2022/09/09 00:41:19;;;;;;;10.63;8.00;;;15.40;99.90;;;;;;5014959;28;20064;-55
2022/09/09 00:43:55;;;;;;;9.68;6.60;;;15.40;99.90;;;;;;4997894;28;20033;-57
2022/09/09 00:47:02;;;;;;;15.77;7.70;;;15.40;99.90;;;;;;5018047;28;20084;-56
2022/09/09 00:49:48;;;;;;;10.43;6.00;;;15.30;99.90;;;;;;4979136;28;20504;-57
2022/09/09 00:52:48;;;;;;;10.65;6.82;;;15.30;99.90;;;;;;4984916;28;20123;-55
2022/09/09 00:55:25;;;;;;;11.88;7.93;;;15.30;99.90;;;;;;5005548;28;20069;-56
2022/09/09 00:57:52;;;;;;;12.57;8.63;;;15.20;99.90;;;;;;4984425;28;20045;-58
2022/09/09 01:00:20;;;;;;;9.48;6.75;;;15.30;99.90;;;;;;4982747;28;20084;-55
2022/09/09 01:02:57;;;;;;;12.90;8.52;;;15.20;99.90;;;;;;4994869;28;20038;-56
2022/09/09 01:05:35;;;;;;;14.40;9.13;;;15.20;99.90;;;;;;5003679;28;20041;-57
2022/09/09 01:08:06;;;;;;;11.13;8.43;;;15.20;99.90;;;;;;4998380;28;20112;-58
2022/09/09 01:10:41;;;;;;;12.52;7.68;;;15.10;99.90;;;;;;4992479;28;20369;-57
2022/09/09 01:13:16;;;;;;;14.43;9.07;;;15.10;99.90;;;;;;5010096;28;20204;-57
2022/09/09 01:15:44;;;;;;;10.13;6.63;;;15.20;99.90;;;;;;5001285;28;20042;-56
2022/09/09 01:18:19;;;;;;;10.50;8.15;;;15.20;99.90;;;;;;5015513;28;20132;-56
2022/09/09 01:20:51;;;;;;;14.68;8.35;;;15.20;99.90;;;;;;4997128;28;20560;-57
2022/09/09 01:23:34;;;;;;;6.78;6.07;;;15.20;99.90;;;;;;4998994;28;20042;-57
2022/09/09 01:26:18;;;;;;;10.55;8.38;;;15.20;99.90;;;;;;4987693;28;20125;-57
2022/09/09 01:28:46;;;;;;;10.73;8.00;;;15.20;99.90;;;;;;5001192;28;20493;-57
2022/09/09 01:31:17;;;;;;;11.40;6.65;;;15.20;99.90;;;;;;5015188;28;20026;-57
2022/09/09 01:33:43;;;;;;;8.45;6.22;;;15.20;99.90;;;;;;4999583;28;20040;-57
2022/09/09 01:36:26;;;;;;;12.80;6.80;;;15.20;99.90;;;;;;5019576;28;20420;-57
2022/09/09 01:38:53;;;;;;;14.15;8.77;;;15.20;99.90;;;;;;4994464;28;20125;-57
2022/09/09 01:41:19;;;;;;;10.70;7.95;;;15.20;99.90;;;;;;4985725;28;20046;-56
2022/09/09 01:43:44;;;;;;;10.65;7.50;;;15.20;99.90;;;;;;4993723;28;20864;-57
2022/09/09 01:46:12;;;;;;;11.27;8.75;;;15.10;99.90;;;;;;4984524;28;20066;-57
2022/09/09 01:48:38;;;;;;;11.15;7.05;;;15.10;99.90;;;;;;4990266;28;20493;-57
2022/09/09 01:51:04;;;;;;;10.95;6.65;;;15.10;99.90;;;;;;4990862;28;20524;-56
2022/09/09 01:53:30;;;;;;;12.18;7.18;;;15.10;99.90;;;;;;4964980;28;20045;-55
2022/09/09 01:56:07;;;;;;;8.90;6.40;;;15.10;99.90;;;;;;4984154;28;20049;-57
2022/09/09 01:59:08;;;;;;;10.68;7.30;;;15.00;99.90;;;;;;4980756;28;20709;-57
2022/09/09 02:01:36;;;;;;;9.98;7.05;;;15.10;99.90;;;;;;4984957;28;21837;-58
2022/09/09 02:04:08;;;;;;;13.88;9.25;;;15.00;99.90;;;;;;4997344;28;20164;-56
2022/09/09 02:06:41;;;;;;;11.70;6.38;;;15.00;99.90;;;;;;4986516;28;20525;-56
2022/09/09 02:09:10;;;;;;;7.13;6.10;;;15.00;99.90;;;;;;4982257;28;20587;-57
2022/09/09 02:11:36;;;;;;;8.05;6.50;;;15.00;99.90;;;;;;4986898;28;20042;-57
2022/09/09 02:14:23;;;;;;;12.23;7.20;;;15.00;99.90;;;;;;4978537;28;20535;-57
2022/09/09 02:17:01;;;;;;;11.65;7.63;;;15.00;99.90;;;;;;4982584;28;20050;-57
2022/09/09 02:19:34;;;;;;;12.25;8.27;;;14.90;99.90;;;;;;4967420;28;20128;-58
2022/09/09 02:22:01;;;;;;;10.10;8.13;;;14.90;99.90;;;;;;4985489;28;20072;-57
2022/09/09 02:24:29;;;;;;;9.43;6.43;;;14.90;99.90;;;;;;4959370;28;20046;-57
2022/09/09 02:26:58;;;;;;;12.52;7.90;;;14.90;99.90;;;;;;4994868;28;20046;-57
2022/09/09 02:29:31;;;;;;;11.98;7.80;;;14.90;99.90;;;;;;4982213;28;20054;-56
2022/09/09 02:32:02;;;;;;;10.90;7.47;;;14.90;99.90;;;;;;4999511;28;20081;-57
2022/09/09 02:34:30;;;;;;;13.43;7.90;;;14.80;99.90;;;;;;4980808;28;20343;-57
2022/09/09 02:36:59;;;;;;;9.25;7.75;;;14.80;99.90;;;;;;4978151;28;20520;-56
2022/09/09 02:39:25;;;;;;;9.38;6.68;;;14.80;99.90;;;;;;4981131;28;20030;-57
2022/09/09 02:41:51;;;;;;;9.88;7.43;;;14.80;99.90;;;;;;4981156;28;20049;-56
2022/09/09 02:44:18;;;;;;;9.20;7.45;;;14.80;99.90;;;;;;4975975;28;20125;-57
2022/09/09 02:47:22;;;;;;;8.93;5.38;;;14.90;99.90;;;;;;4982303;28;20054;-56
2022/09/09 02:50:28;;;;;;;11.32;7.63;;;14.90;99.90;;;;;;4959672;28;20046;-57
2022/09/09 02:53:00;;;;;;;9.85;7.10;;;14.90;99.90;;;;;;4993694;28;20046;-60
2022/09/09 02:55:25;;;;;;;7.85;6.55;;;14.90;99.90;;;;;;4982080;28;22420;-57
2022/09/09 02:57:52;;;;;;;9.95;7.03;;;14.90;99.90;;;;;;4978256;28;20045;-57
2022/09/09 03:00:27;;;;;;;11.20;7.78;;;14.90;99.90;;;;;;4979173;28;20678;-57
2022/09/09 03:02:54;;;;;;;10.23;7.90;;;14.90;99.90;;;;;;5008778;28;20493;-57
2022/09/09 03:05:20;;;;;;;6.82;6.05;;;14.90;99.90;;;;;;4990816;28;20056;-57
2022/09/09 03:07:46;;;;;;;11.25;7.03;;;14.90;99.90;;;;;;5003624;28;20570;-57
2022/09/09 03:10:13;;;;;;;11.32;8.07;;;14.80;99.90;;;;;;4987088;28;20048;-58
2022/09/09 03:12:39;;;;;;;11.20;7.78;;;15.10;99.90;;;;;;4975119;28;22397;-56
2022/09/09 03:15:06;;;;;;;12.55;8.75;;;14.80;99.90;;;;;;4985869;28;20077;-57
2022/09/09 03:17:32;;;;;;;13.20;7.55;;;14.90;99.90;;;;;;4988637;28;20069;-57
2022/09/09 03:19:58;;;;;;;9.90;7.80;;;14.90;99.90;;;;;;4993377;28;20108;-57
2022/09/09 03:22:25;;;;;;;8.90;7.35;;;14.80;99.90;;;;;;4991104;28;20045;-58
2022/09/09 03:24:51;;;;;;;11.25;9.10;;;14.80;99.90;;;;;;4998494;28;20103;-58
2022/09/09 03:27:19;;;;;;;9.57;6.75;;;14.80;99.90;;;;;;5000676;28;20092;-56
2022/09/09 03:29:45;;;;;;;13.70;8.52;;;14.80;99.90;;;;;;4998348;28;20424;-57
2022/09/09 03:32:12;;;;;;;14.25;8.23;;;14.80;99.90;;;;;;4998876;28;20117;-58
2022/09/09 03:34:40;;;;;;;9.88;7.78;;;14.80;99.90;;;;;;5004672;28;20042;-58
2022/09/09 03:37:06;;;;;;;10.02;8.05;;;14.80;99.90;;;;;;5002407;28;20527;-57
2022/09/09 03:39:32;;;;;;;11.13;8.02;;;14.80;99.90;;;;;;4983639;28;20041;-57
2022/09/09 03:41:57;;;;;;;12.80;8.70;;;14.80;99.90;;;;;;4995575;28;20043;-58
2022/09/09 03:44:23;;;;;;;11.68;9.27;;;14.80;99.90;;;;;;5002652;28;20045;-58
2022/09/09 03:46:49;;;;;;;14.63;9.02;;;14.70;99.90;;;;;;5004749;28;20037;-57
2022/09/09 03:49:15;;;;;;;11.23;8.90;;;14.80;99.90;;;;;;5007370;28;20097;-57
2022/09/09 03:51:41;;;;;;;10.65;7.45;;;14.80;99.90;;;;;;4989492;28;20030;-57
2022/09/09 03:54:09;;;;;;;12.80;9.23;;;14.80;99.90;;;;;;4986794;28;20558;-58
2022/09/09 03:56:36;;;;;;;10.38;8.90;;;14.80;99.90;;;;;;5019977;23;20045;-57
2022/09/09 03:59:03;;;;;;;13.35;8.65;;;14.80;99.90;;;;;;5015681;28;20048;-56
2022/09/09 04:01:29;;;;;;;13.32;7.68;;;14.80;99.90;;;;;;5023060;28;20038;-58
2022/09/09 04:03:57;;;;;;;14.02;7.22;;;14.80;99.90;;;;;;5010847;28;20084;-58
2022/09/09 04:06:24;;;;;;;10.07;8.20;;;14.80;99.90;;;;;;5042822;28;20037;-58
2022/09/09 04:08:52;;;;;;;10.43;7.57;;;14.80;99.90;;;;;;5024995;28;20500;-58
2022/09/09 04:11:18;;;;;;;9.77;7.03;;;14.80;99.90;;;;;;5041259;28;20076;-58
2022/09/09 04:13:44;;;;;;;10.98;8.43;;;14.80;99.90;;;;;;5037227;28;20045;-58
2022/09/09 04:16:13;;;;;;;12.57;8.25;;;14.80;99.90;;;;;;5019162;28;20098;-58
2022/09/09 04:18:38;;;;;;;9.88;7.00;;;14.70;99.90;;;;;;5041169;28;20040;-58
2022/09/09 04:21:06;;;;;;;9.20;5.95;;;14.70;99.90;;;;;;5036547;28;20036;-57
2022/09/09 04:23:33;;;;;;;9.55;7.10;;;14.70;99.90;;;;;;5046298;28;20033;-58
2022/09/09 04:26:00;;;;;;;8.40;5.80;;;14.80;99.90;;;;;;5026066;28;20465;-58
2022/09/09 04:28:29;;;;;;;10.52;7.43;;;14.80;99.90;;;;;;4999233;28;20043;-58
2022/09/09 04:30:56;;;;;;;10.52;7.63;;;14.80;99.90;;;;;;5034000;28;20131;-58
2022/09/09 04:33:31;;;;;;;10.68;7.80;;;14.80;99.90;;;;;;4993356;28;20436;-58
2022/09/09 04:35:57;;;;;;;11.15;8.02;;;14.80;99.90;;;;;;5020780;28;20036;-58
2022/09/09 04:38:23;;;;;;;12.10;8.43;;;14.80;99.90;;;;;;5032435;28;20393;-58
2022/09/09 04:40:51;;;;;;;10.63;8.93;;;14.80;99.90;;;;;;5031757;28;20033;-57
2022/09/09 04:43:18;;;;;;;15.75;9.93;;;14.80;99.90;;;;;;5004131;28;20243;-58
2022/09/09 04:45:48;;;;;;;13.75;9.55;;;14.80;99.90;;;;;;5041978;28;20460;-58
2022/09/09 04:48:13;;;;;;;12.98;9.48;;;14.80;99.90;;;;;;5001912;28;20045;-58
2022/09/09 04:50:40;;;;;;;11.65;8.13;;;14.80;99.90;;;;;;5036411;28;20439;-57
2022/09/09 04:53:06;;;;;;;13.70;9.43;;;14.80;99.90;;;;;;5035796;28;20523;-57
2022/09/09 04:55:35;;;;;;;11.32;9.45;;;14.90;99.90;;;;;;5046396;28;20045;-58
2022/09/09 04:58:06;;;;;;;14.45;9.80;;;14.90;99.90;;;;;;5050229;28;20032;-58
2022/09/09 05:00:35;;;;;;;11.70;9.27;;;14.90;99.90;;;;;;5039248;28;20037;-57
2022/09/09 05:03:05;;;;;;;15.00;10.20;;;14.90;99.90;;;;;;5001478;28;20076;-58
2022/09/09 05:05:33;;;;;;;14.20;8.00;;;14.90;99.90;;;;;;5018685;28;20037;-58
2022/09/09 05:08:08;;;;;;;14.07;9.40;;;14.90;99.90;;;;;;5035345;28;20033;-58
2022/09/09 05:10:37;;;;;;;12.73;8.50;;;14.90;99.90;;;;;;5021406;28;20045;-57
2022/09/09 05:13:04;;;;;;;12.57;8.38;;;14.90;99.90;;;;;;5017059;28;20621;-58
2022/09/09 05:15:30;;;;;;;13.50;9.38;;;14.90;99.90;;;;;;5020223;28;20053;-58
2022/09/09 05:18:00;;;;;;;12.88;9.18;;;14.90;99.90;;;;;;5009182;28;20042;-59
2022/09/09 05:20:27;;;;;;;11.90;7.93;;;14.90;99.90;;;;;;5036851;28;20109;-58
2022/09/09 05:22:54;;;;;;;12.70;9.50;;;14.90;99.90;;;;;;5008744;28;20041;-57
2022/09/09 05:25:20;;;;;;;13.20;8.13;;;14.90;99.90;;;;;;5038094;28;20033;-57
2022/09/09 05:27:46;;;;;;;10.00;7.47;;;14.90;99.90;;;;;;5009382;28;20045;-58
2022/09/09 05:30:11;;;;;;;12.40;10.50;;;14.90;99.90;;;;;;5020496;28;20052;-58
2022/09/09 05:32:37;;;;;;;16.02;10.30;;;15.00;99.90;;;;;;5034691;28;20036;-58
2022/09/09 05:35:03;;;;;;;12.82;10.40;;;15.00;99.90;;;;;;5025714;28;20342;-57
2022/09/09 05:37:31;;;;;;;13.68;10.45;;;15.00;99.90;;;;;;5038568;28;20175;-56
2022/09/09 05:39:57;;;;;;;13.02;11.13;;;15.00;99.90;;;;;;5036008;28;20238;-59
2022/09/09 05:42:24;;;;;;;13.15;9.75;;;15.00;99.90;;;;;;4998691;28;20065;-59
2022/09/09 05:44:50;;;;;;;13.95;11.07;;;15.00;99.90;;;;;;5021072;28;20037;-58
2022/09/09 05:47:17;;;;;;;13.32;11.07;;;15.00;99.90;;;;;;5027988;28;20512;-58
2022/09/09 05:49:42;;;;;;;13.20;10.48;;;15.00;99.90;;;;;;5036564;28;20372;-58
2022/09/09 05:52:09;;;;;;;13.85;11.40;;;15.00;99.90;;;;;;5022721;28;20172;-58
2022/09/09 05:54:37;;;;;;;12.65;10.73;;;15.00;99.90;;;;;;4995994;28;20558;-58
2022/09/09 05:57:03;;;;;;;14.43;11.82;;;15.00;99.90;;;;;;5007663;28;20087;-58
2022/09/09 05:59:29;;;;;;;18.70;13.50;;;15.00;99.90;;;;;;5031080;28;20077;-58
2022/09/09 06:01:54;;;;;;;16.58;12.35;;;15.00;99.90;;;;;;5026203;28;20176;-58
2022/09/09 06:04:24;;;;;;;18.15;13.93;;;15.00;99.90;;;;;;5016579;28;20064;-58
2022/09/09 06:06:50;;;;;;;14.13;11.90;;;15.10;99.90;;;;;;5021705;28;20498;-58
2022/09/09 06:09:16;;;;;;;14.40;11.40;;;15.10;99.90;;;;;;5018499;28;20254;-57
2022/09/09 06:11:42;;;;;;;14.18;12.35;;;15.10;99.90;;;;;;5020211;28;20065;-57
2022/09/09 06:14:08;;;;;;;16.48;12.73;;;15.10;99.90;;;;;;5036117;28;20075;-58
2022/09/09 06:16:35;;;;;;;15.50;11.43;;;15.20;99.90;;;;;;5036982;28;20041;-58
2022/09/09 06:19:03;;;;;;;13.95;11.35;;;15.20;99.90;;;;;;5019735;28;20041;-58
2022/09/09 06:21:36;;;;;;;12.80;11.23;;;15.30;99.90;;;;;;5005011;28;20887;-59
2022/09/09 06:24:04;;;;;;;;;;;15.30;99.90;;;;;;5032035;28;20052;-59
2022/09/09 06:26:32;;;;;;;14.60;11.25;;;15.30;99.90;;;;;;5023543;28;19947;-58
2022/09/09 06:28:59;;;;;;;14.43;11.32;;;15.30;99.90;;;;;;5019001;28;20132;-59
2022/09/09 06:31:30;;;;;;;17.00;11.35;;;15.30;99.90;;;;;;5036367;28;20033;-58
2022/09/09 06:33:56;;;;;;;11.75;10.35;;;15.30;99.90;;;;;;5040256;28;20537;-58
2022/09/09 06:36:25;;;;;;;14.13;10.90;;;15.40;99.90;;;;;;5043304;28;20408;-57
2022/09/09 06:38:51;;;;;;;11.73;9.15;;;15.30;99.90;;;;;;5020015;28;20349;-58
2022/09/09 06:41:19;;;;;;;12.82;9.40;;;15.40;99.90;;;;;;5030888;28;20148;-58
2022/09/09 06:43:45;;;;;;;14.75;9.50;;;15.40;99.90;;;;;;5042267;28;20037;-58
2022/09/09 06:46:17;;;;;;;14.20;10.95;;;15.40;99.90;;;;;;5026821;28;20470;-58
2022/09/09 06:48:46;;;;;;;13.65;10.10;;;15.40;99.90;;;;;;5020860;28;20526;-58
2022/09/09 06:51:13;;;;;;;14.45;9.77;;;15.50;99.90;;;;;;5024690;28;20125;-58
2022/09/09 06:53:40;;;;;;;11.35;8.77;;;15.50;99.90;;;;;;5042384;28;20082;-59
2022/09/09 06:56:29;;;;;;;11.98;10.77;;;15.50;99.90;;;;;;5043906;28;20056;-58
2022/09/09 06:58:58;;;;;;;13.80;10.25;;;15.50;99.90;;;;;;5045255;28;20139;-59
2022/09/09 07:01:26;;;;;;;13.15;9.73;;;15.50;99.90;;;;;;5014843;28;20938;-58
2022/09/09 07:03:54;;;;;;;16.17;9.88;;;15.50;99.90;;;;;;5037727;28;20037;-58
2022/09/09 07:06:25;;;;;;;14.38;10.10;;;15.60;99.90;;;;;;5040151;28;20037;-59
2022/09/09 07:08:55;;;;;;;15.82;9.80;;;15.60;99.90;;;;;;5023704;28;20033;-59
2022/09/09 07:11:23;;;;;;;12.18;9.23;;;15.60;99.90;;;;;;5031570;28;20504;-57
2022/09/09 07:13:49;;;;;;;13.00;9.55;;;15.60;99.90;;;;;;5030826;28;20182;-58
2022/09/09 07:16:18;;;;;;;12.05;9.23;;;15.70;99.90;;;;;;5029693;28;20510;-58
2022/09/09 07:18:44;;;;;;;12.05;8.85;;;15.70;99.90;;;;;;5029857;28;20132;-59
2022/09/09 07:21:14;;;;;;;13.10;9.23;;;15.70;99.90;;;;;;5020550;28;20038;-58
2022/09/09 07:23:41;;;;;;;11.15;9.07;;;15.70;99.90;;;;;;5020472;28;20041;-58
2022/09/09 07:26:13;;;;;;;12.85;9.05;;;15.70;99.90;;;;;;5038896;28;20045;-57
2022/09/09 07:28:39;;;;;;;14.52;9.32;;;15.80;99.90;;;;;;5045326;28;20105;-58
2022/09/09 07:31:05;;;;;;;11.63;9.25;;;15.80;99.90;;;;;;5013004;28;20053;-58
2022/09/09 07:33:33;;;;;;;11.90;9.35;;;15.90;99.90;;;;;;5037550;28;20124;-58
2022/09/09 07:36:09;;;;;;;11.65;8.57;;;15.90;99.90;;;;;;5046126;28;20123;-58
2022/09/09 07:38:55;;;;;;;8.82;7.43;;;15.90;99.90;;;;;;5032563;28;20039;-58
2022/09/09 07:41:27;;;;;;;9.48;7.05;;;16.00;99.90;;;;;;5020392;28;20049;-56
2022/09/09 07:43:56;;;;;;;9.50;7.22;;;16.10;99.90;;;;;;5044585;28;20033;-58
2022/09/09 07:46:26;;;;;;;11.32;7.03;;;16.30;99.90;;;;;;5043358;28;20515;-57
2022/09/09 07:48:55;;;;;;;11.75;7.82;;;16.40;99.90;;;;;;5043764;28;20442;-58
2022/09/09 07:51:28;;;;;;;12.40;8.15;;;16.50;99.90;;;;;;5022656;28;20045;-57
2022/09/09 07:53:59;;;;;;;9.85;6.80;;;16.70;99.90;;;;;;5042083;28;20065;-58
2022/09/09 07:56:26;;;;;;;9.50;6.65;;;16.90;99.90;;;;;;5047741;28;20377;-58
2022/09/09 07:58:54;;;;;;;10.40;7.43;;;17.10;99.90;;;;;;5030463;28;20037;-58
2022/09/09 08:01:23;;;;;;;10.50;6.05;;;17.30;99.90;;;;;;5037021;28;20139;-58
2022/09/09 08:03:56;;;;;;;10.60;6.43;;;17.40;99.90;;;;;;5047648;28;20440;-58
2022/09/09 08:06:23;;;;;;;9.30;5.90;;;17.40;99.90;;;;;;5044064;28;20048;-58
2022/09/09 08:08:54;;;;;;;10.05;6.65;;;17.50;99.90;;;;;;5027020;28;20041;-58
2022/09/09 08:11:24;;;;;;;8.43;5.90;;;17.60;99.90;;;;;;5020893;28;20041;-58
2022/09/09 08:13:51;;;;;;;8.13;5.93;;;17.70;99.90;;;;;;5047268;28;20043;-59
2022/09/09 08:16:23;;;;;;;9.25;6.40;;;17.70;99.90;;;;;;5031551;28;20052;-57
2022/09/09 08:18:51;;;;;;;9.02;5.70;;;17.80;99.90;;;;;;5028823;28;20037;-58
2022/09/09 08:21:26;;;;;;;8.85;6.22;;;17.90;99.90;;;;;;5028838;28;21413;-59
2022/09/09 08:23:53;;;;;;;9.25;6.22;;;18.00;99.90;;;;;;5024498;28;20040;-59
2022/09/09 08:26:22;;;;;;;8.63;6.03;;;18.00;99.90;;;;;;5032219;28;20079;-58
2022/09/09 08:28:51;;;;;;;12.32;6.00;;;17.90;99.90;;;;;;5026073;28;20065;-58
2022/09/09 08:31:20;;;;;;;9.27;5.97;;;17.70;99.90;;;;;;5037244;28;20542;-58
2022/09/09 08:33:46;;;;;;;9.40;6.05;;;17.70;99.90;;;;;;5038057;28;20037;-59
2022/09/09 08:36:15;;;;;;;9.88;5.88;;;17.70;99.90;;;;;;5002754;28;20067;-58
2022/09/09 08:38:42;;;;;;;13.90;6.15;;;17.80;99.90;;;;;;5009510;28;20038;-59
2022/09/09 08:41:35;;;;;;;9.10;6.55;;;17.80;99.90;;;;;;5025653;28;20045;-59
2022/09/09 08:44:10;;;;;;;11.68;6.90;;;17.80;99.90;;;;;;5022830;28;20037;-60
2022/09/09 08:47:02;;;;;;;11.48;6.00;;;17.80;99.90;;;;;;5008876;28;20067;-61
2022/09/09 08:49:43;;;;;;;23.38;6.43;;;17.80;99.90;;;;;;5020785;28;20072;-58
2022/09/09 08:52:16;;;;;;;6.95;5.57;;;17.80;99.90;;;;;;5029374;28;20140;-60
2022/09/09 08:54:42;;;;;;;8.68;6.38;;;17.80;99.90;;;;;;5024595;28;20045;-60
2022/09/09 08:57:17;;;;;;;9.50;6.28;;;17.90;99.90;;;;;;5024472;28;20239;-59
2022/09/09 08:59:42;;;;;;;11.75;6.60;;;17.90;99.90;;;;;;5028196;28;20033;-59
2022/09/09 09:02:37;;;;;;;8.82;5.88;;;18.00;99.90;;;;;;5013505;28;20045;-59
2022/09/09 09:05:29;;;;;;;8.95;6.10;;;17.90;99.90;;;;;;5009339;28;20484;-61
2022/09/09 09:08:13;;;;;;;10.25;5.13;;;18.00;99.90;;;;;;5018039;28;20033;-59
2022/09/09 09:10:53;;;;;;;9.23;4.75;;;18.10;99.90;;;;;;5028993;28;20087;-60
2022/09/09 09:13:25;;;;;;;8.88;4.68;;;18.30;99.90;;;;;;5024659;28;20047;-60
2022/09/09 09:16:02;;;;;;;13.50;4.88;;;18.60;99.90;;;;;;5003486;28;20161;-60
2022/09/09 09:18:28;;;;;;;11.18;4.78;;;18.70;99.90;;;;;;5026997;28;20152;-60
2022/09/09 09:21:06;;;;;;;9.10;3.95;;;18.80;99.90;;;;;;5007835;28;20128;-60
2022/09/09 09:23:56;;;;;;;20.52;4.75;;;18.80;99.90;;;;;;5033386;28;20311;-61
2022/09/09 09:26:26;;;;;;;7.60;3.70;;;18.80;99.90;;;;;;5026591;28;20052;-61
2022/09/09 09:28:57;;;;;;;7.65;4.03;;;18.70;99.90;;;;;;5027106;28;20597;-60
2022/09/09 09:31:26;;;;;;;10.15;4.90;;;18.90;99.90;;;;;;5005735;28;20202;-61
2022/09/09 09:33:59;;;;;;;9.77;3.88;;;18.90;99.90;;;;;;5024147;28;20415;-60
2022/09/09 09:36:35;;;;;;;10.80;3.40;;;18.80;99.90;;;;;;5015725;28;20071;-60
2022/09/09 09:39:03;;;;;;;11.23;4.05;;;18.80;99.90;;;;;;5026289;28;20041;-61
2022/09/09 09:41:36;;;;;;;11.48;4.22;;;18.70;99.90;;;;;;5026843;28;20045;-61
2022/09/09 09:44:02;;;;;;;10.38;3.10;;;18.70;99.90;;;;;;5024015;28;20412;-60
2022/09/09 09:46:28;;;;;;;12.57;4.35;;;18.70;99.90;;;;;;5032736;28;20044;-60
2022/09/09 09:49:01;;;;;;;12.00;3.95;;;18.60;99.90;;;;;;5024095;28;20112;-60
2022/09/09 09:51:32;;;;;;;11.00;4.60;;;18.60;99.90;;;;;;5027422;28;20060;-61
2022/09/09 09:54:09;;;;;;;9.63;3.38;;;18.60;99.90;;;;;;4999111;28;20041;-63
2022/09/09 09:56:36;;;;;;;7.80;2.88;;;18.70;99.90;;;;;;5040385;28;20479;-61
2022/09/09 09:59:01;;;;;;;8.07;3.22;;;18.70;99.90;;;;;;5044536;28;20127;-61
2022/09/09 10:01:32;;;;;;;5.68;3.22;;;18.80;99.90;;;;;;5039766;28;20128;-60
2022/09/09 10:04:15;;;;;;;6.93;2.97;;;18.80;99.90;;;;;;5048006;28;20099;-61
2022/09/09 10:06:42;;;;;;;6.82;3.08;;;18.90;99.90;;;;;;5049571;23;20072;-62
2022/09/09 10:09:25;;;;;;;8.30;3.08;;;18.90;99.90;;;;;;4994872;28;20174;-62
2022/09/09 10:12:11;;;;;;;6.70;2.83;;;19.00;99.90;;;;;;5004418;28;20037;-60
2022/09/09 10:14:50;;;;;;;5.43;3.05;;;19.00;99.90;;;;;;4996631;28;20041;-61
2022/09/09 10:17:21;;;;;;;8.05;2.75;;;18.90;99.90;;;;;;4984059;28;20060;-63
2022/09/09 10:20:13;;;;;;;9.68;3.20;;;18.90;99.90;;;;;;5009416;28;20124;-61
2022/09/09 10:22:47;;;;;;;9.82;3.95;;;18.80;99.90;;;;;;4999576;28;20399;-60
2022/09/09 10:25:36;;;;;;;7.88;2.53;;;18.80;99.90;;;;;;5024123;28;20076;-63
2022/09/09 10:28:37;;;;;;;6.75;3.03;;;18.80;99.90;;;;;;5018924;28;20121;-60
2022/09/09 10:31:12;;;;;;;9.68;3.25;;;18.80;99.90;;;;;;4983801;28;20183;-63
2022/09/09 10:33:49;;;;;;;6.03;3.13;;;18.70;99.90;;;;;;4991292;28;20037;-61
2022/09/09 10:36:23;;;;;;;6.80;3.05;;;18.70;99.90;;;;;;5021434;28;20128;-62
2022/09/09 10:39:03;;;;;;;9.57;3.08;;;18.90;99.90;;;;;;5003235;28;20038;-61
2022/09/09 10:41:55;;;;;;;7.05;2.58;;;19.10;99.90;;;;;;5015093;28;20037;-61
2022/09/09 10:44:40;;;;;;;7.35;3.00;;;19.20;99.90;;;;;;4977976;28;20060;-63
2022/09/09 10:47:15;;;;;;;6.97;2.45;;;19.20;99.90;;;;;;4993433;28;20815;-61
2022/09/09 10:49:52;;;;;;;4.32;2.03;;;19.20;99.90;;;;;;4992592;28;20037;-60
2022/09/09 10:52:25;;;;;;;8.57;2.65;;;19.40;99.90;;;;;;4992098;28;20042;-63
2022/09/09 10:55:11;;;;;;;8.05;2.55;;;19.40;99.90;;;;;;4988250;28;20500;-63
2022/09/09 10:57:47;;;;;;;5.47;2.45;;;19.50;99.90;;;;;;5004207;28;20045;-60
2022/09/09 11:00:22;;;;;;;6.53;2.60;;;19.70;99.90;;;;;;4990379;28;20103;-63
2022/09/09 11:03:04;;;;;;;9.35;2.85;;;19.80;99.90;;;;;;4978524;28;20049;-61
2022/09/09 11:05:34;;;;;;;9.10;2.33;;;19.90;99.90;;;;;;4998993;28;20073;-61
2022/09/09 11:08:19;;;;;;;8.90;2.67;;;19.90;99.90;;;;;;5013321;28;20075;-63
2022/09/09 11:11:17;;;;;;;6.60;1.65;;;20.10;99.90;;;;;;5008204;28;20098;-62
2022/09/09 11:13:54;;;;;;;5.88;2.20;;;20.30;99.90;;;;;;4993496;28;20319;-61
2022/09/09 11:16:34;;;;;;;7.35;2.05;;;20.30;99.90;;;;;;4988541;28;20053;-63
2022/09/09 11:19:26;;;;;;;7.43;3.03;;;20.20;99.90;;;;;;4993437;28;20037;-62
2022/09/09 11:21:54;;;;;;;10.30;2.30;;;20.10;99.90;;;;;;4987844;28;20410;-62
2022/09/09 11:24:29;;;;;;;7.35;2.55;;;20.00;99.90;;;;;;4996521;28;20052;-63
2022/09/09 11:27:07;;;;;;;7.90;1.77;;;20.00;99.90;;;;;;4988041;28;20060;-62
2022/09/09 11:29:38;;;;;;;6.70;1.75;;;20.00;99.90;;;;;;4995752;28;20412;-62
2022/09/09 11:32:24;;;;;;;3.55;1.50;;;20.00;99.90;;;;;;5013119;28;20052;-63
2022/09/09 11:35:02;;;;;;;6.28;1.98;;;20.00;99.90;;;;;;4997652;28;20052;-61
2022/09/09 11:37:32;;;;;;;5.28;1.75;;;20.10;99.90;;;;;;5006682;28;20065;-62
2022/09/09 11:40:13;;;;;;;6.78;1.90;;;20.20;99.90;;;;;;4996713;28;20497;-60
2022/09/09 11:42:38;;;;;;;3.40;1.65;;;20.50;99.90;;;;;;4992819;28;20168;-61
2022/09/09 11:45:20;;;;;;;8.85;2.25;;;20.70;99.90;;;;;;4976895;28;20159;-60
2022/09/09 11:48:00;;;;;;;6.70;1.88;;;20.80;99.90;;;;;;4986274;28;20635;-61
2022/09/09 11:50:26;;;;;;;8.98;2.10;;;20.70;99.90;;;;;;5003527;28;20064;-61
2022/09/09 11:53:20;;;;;;;7.88;1.98;;;20.60;99.90;;;;;;4995191;28;20038;-61
2022/09/09 11:55:47;;;;;;;7.95;2.30;;;20.40;99.90;;;;;;4982597;28;20396;-62
2022/09/09 11:58:12;;;;;;;7.95;2.33;;;20.40;99.90;;;;;;4979911;28;20452;-60
2022/09/09 12:00:41;;;;;;;7.53;2.00;;;20.50;99.90;;;;;;4997354;28;20029;-63
2022/09/09 12:03:39;;;;;;;7.25;2.20;;;20.60;99.90;;;;;;5000367;28;20438;-60
2022/09/09 12:06:15;;;;;;;8.13;1.63;;;20.90;99.90;;;;;;4996162;28;20600;-62
2022/09/09 12:08:45;;;;;;;5.53;1.55;;;21.20;99.90;;;;;;4989092;28;20273;-61
2022/09/09 12:11:11;;;;;;;5.65;1.63;;;21.30;99.90;;;;;;4987782;28;20451;-63
2022/09/09 12:13:37;;;;;;;7.93;2.13;;;21.30;99.90;;;;;;5011834;28;20068;-61
2022/09/09 12:16:05;;;;;;;6.00;1.63;;;21.20;99.90;;;;;;4998163;28;20056;-61
2022/09/09 12:18:36;;;;;;;5.13;1.55;;;21.10;99.90;;;;;;4995672;28;20995;-63
2022/09/09 12:21:16;;;;;;;6.80;2.13;;;21.10;99.90;;;;;;4994529;28;20116;-63
2022/09/09 12:24:15;;;;;;;7.35;2.33;;;21.00;99.90;;;;;;4983355;28;20500;-62
2022/09/09 12:27:22;;;;;;;8.32;1.95;;;21.00;99.90;;;;;;4987212;28;20058;-62
2022/09/09 12:30:07;;;;;;;7.10;2.30;;;21.00;99.90;;;;;;4999426;28;20047;-62
2022/09/09 12:32:33;;;;;;;9.75;2.58;;;21.00;99.90;;;;;;4997093;28;20050;-61
2022/09/09 12:35:09;;;;;;;8.48;2.33;;;20.90;99.90;;;;;;4989577;28;20409;-60
2022/09/09 12:37:56;;;;;;;5.90;2.17;;;21.00;99.90;;;;;;4975859;28;20056;-62
2022/09/09 12:40:28;;;;;;;7.93;2.40;;;20.90;99.90;;;;;;4990527;28;23260;-61
2022/09/09 12:42:55;;;;;;;6.78;2.33;;;20.80;99.90;;;;;;4988870;28;20046;-62
2022/09/09 12:45:25;;;;;;;7.63;2.17;;;20.70;99.90;;;;;;4997931;28;20156;-61
2022/09/09 12:47:56;;;;;;;8.63;2.33;;;20.60;99.90;;;;;;4996665;28;20034;-60
2022/09/09 12:50:26;;;;;;;5.35;2.17;;;20.60;99.90;;;;;;5001025;28;20132;-62
2022/09/09 12:53:06;;;;;;;8.27;2.45;;;20.50;99.90;;;;;;4998392;28;20057;-63
2022/09/09 12:55:36;;;;;;;6.05;1.65;;;20.50;99.90;;;;;;5002608;28;20148;-62
2022/09/09 12:58:05;;;;;;;6.93;2.10;;;20.70;99.90;;;;;;5015337;28;20446;-63
2022/09/09 13:00:31;;;;;;;6.20;1.83;;;21.20;99.90;;;;;;4983404;28;20033;-63
2022/09/09 13:03:02;;;;;;;5.78;2.03;;;21.60;99.90;;;;;;4979145;28;20049;-60
2022/09/09 13:05:35;;;;;;;6.15;2.00;;;21.90;99.90;;;;;;4995356;28;20045;-61
2022/09/09 13:08:05;;;;;;;;;;;22.10;99.90;;;;;;4997723;28;20046;-61